OPKC/KHI METAR and TAF weather

Enter ICAO airport designator
Station Type Date Time Source
OPKC METAR 2021/03/05 18:55 UTC NOAA

OPKC 051855Z 24004KT 5000 FU NSC 23/20 Q1014 NOSIG


Station Type Date Time Source
OPKC Decoded METAR 2021/03/05 18:55 UTC NOAA

Karachi Airport, Pakistan (OPKC) 24-54N 067-08E 22M
Mar 05, 2021 - 01:55 PM EST / 2021.03.05 1855 UTC
Wind: from the WSW (240 degrees) at 5 MPH (4 KT):0
Visibility: 3 mile(s):0
Weather: smoke
Temperature: 73 F (23 C)
Dew Point: 68 F (20 C)
Relative Humidity: 83%
Pressure (altimeter): 29.94 in. Hg (1014 hPa)
ob: OPKC 051855Z 24004KT 5000 FU NSC 23/20 Q1014 NOSIG
cycle: 19

Station Type Date Time Source
OPKC TAF 2021/03/05 12:48 UTC NOAA

TAF OPKC 050930Z 0512/0618 24010KT 6000 NSC
BECMG 0518/0520 34010KT 4000 HZ NSC
TEMPO 0600/0604 VRB03KT 2000 FU NSC
BECMG 0608/0610 24010G20KT

Example: see airport list